createdAt,value
2019-06-07T00:01:46.527Z,99522.73
2019-06-07T00:04:16.269Z,99519.36
2019-06-07T00:06:45.662Z,99520.17
2019-06-07T00:09:17.730Z,99525.07
2019-06-07T00:11:45.873Z,99522.63
2019-06-07T00:14:16.611Z,99530.52
2019-06-07T00:16:46.099Z,99535.87
2019-06-07T00:19:16.222Z,99538.48
2019-06-07T00:22:15.456Z,99537.20
2019-06-07T00:24:19.398Z,99531.89
2019-06-07T00:26:58.329Z,99539.55
2019-06-07T00:29:21.750Z,99542.23
2019-06-07T00:31:50.149Z,99544.15
2019-06-07T00:34:22.119Z,99542.08
2019-06-07T00:36:50.274Z,99539.28
2019-06-07T00:39:24.687Z,99539.77
2019-06-07T00:41:50.450Z,99533.30
2019-06-07T00:44:23.098Z,99542.41
2019-06-07T00:46:50.992Z,99542.15
2019-06-07T00:49:36.094Z,99538.95
2019-06-07T00:51:51.986Z,99546.16
2019-06-07T00:54:24.663Z,99541.16
2019-06-07T00:56:54.972Z,99540.38
2019-06-07T00:59:29.178Z,99538.00
2019-06-07T01:01:55.267Z,99532.02
2019-06-07T01:04:26.631Z,99529.69
2019-06-07T01:06:55.506Z,99529.33
2019-06-07T01:09:25.534Z,99528.02
2019-06-07T01:11:55.190Z,99533.69
2019-06-07T01:14:27.760Z,99537.52
2019-06-07T01:17:01.403Z,99536.00
2019-06-07T01:19:27.772Z,99532.69
2019-06-07T01:21:57.481Z,99530.41
2019-06-07T01:24:28.053Z,99537.44
2019-06-07T01:26:57.541Z,99530.95
2019-06-07T01:29:30.393Z,99530.23
2019-06-07T01:31:57.803Z,99528.17
2019-06-07T01:34:27.039Z,99524.91
2019-06-07T01:36:56.278Z,99526.47
2019-06-07T01:39:29.730Z,99529.10
2019-06-07T01:41:56.582Z,99534.73
2019-06-07T01:44:28.103Z,99543.63
2019-06-07T01:46:56.725Z,99548.54
2019-06-07T01:49:28.112Z,99546.63
2019-06-07T01:51:58.872Z,99545.55
2019-06-07T01:54:53.158Z,99551.12
2019-06-07T01:56:59.092Z,99551.55
2019-06-07T01:59:31.008Z,99552.23
2019-06-07T02:01:59.373Z,99544.52
2019-06-07T02:04:32.406Z,99544.86
2019-06-07T02:06:59.669Z,99545.95
2019-06-07T02:09:31.757Z,99546.48
2019-06-07T02:11:59.850Z,99548.38
2019-06-07T02:14:32.467Z,99552.23
2019-06-07T02:16:59.981Z,99551.94
2019-06-07T02:19:32.735Z,99548.44
2019-06-07T02:22:00.281Z,99552.26
2019-06-07T02:24:35.135Z,99548.98
2019-06-07T02:27:00.510Z,99548.16
2019-06-07T02:29:33.334Z,99545.42
2019-06-07T02:32:00.969Z,99547.39
2019-06-07T02:34:36.016Z,99540.19
2019-06-07T02:37:01.072Z,99539.92
2019-06-07T02:39:37.594Z,99538.67
2019-06-07T02:42:03.244Z,99541.38
2019-06-07T02:44:38.575Z,99547.08
2019-06-07T02:47:04.841Z,99549.61
2019-06-07T02:49:40.487Z,99554.95
2019-06-07T02:52:05.048Z,99555.24
2019-06-07T02:54:39.540Z,99558.03
2019-06-07T02:57:05.651Z,99551.25
2019-06-07T03:00:02.933Z,99569.90
2019-06-07T03:02:05.865Z,99562.20
2019-06-07T03:04:41.566Z,99559.67
2019-06-07T03:07:06.374Z,99561.23
2019-06-07T03:09:37.207Z,99570.18
2019-06-07T03:12:09.594Z,99568.39
2019-06-07T03:14:39.408Z,99561.51
2019-06-07T03:17:11.903Z,99560.69
2019-06-07T03:19:42.169Z,99567.34
2019-06-07T03:22:11.553Z,99567.63
2019-06-07T03:24:42.292Z,99562.94
2019-06-07T03:29:42.781Z,99571.92
2019-06-07T03:32:12.307Z,99570.02
2019-06-07T03:34:43.665Z,99570.41
2019-06-07T03:37:12.468Z,99573.93
2019-06-07T03:39:41.719Z,99571.01
2019-06-07T03:42:10.909Z,99566.08
2019-06-07T03:44:41.578Z,99566.93
2019-06-07T03:47:11.170Z,99570.80
2019-06-07T03:49:42.677Z,99579.56
2019-06-07T03:52:11.612Z,99586.16
2019-06-07T03:54:41.141Z,99589.57
2019-06-07T03:57:10.317Z,99586.52
2019-06-07T03:59:41.561Z,99594.17
2019-06-07T04:02:10.594Z,99585.34
2019-06-07T04:04:39.973Z,99601.88
2019-06-07T04:07:09.227Z,99600.39
2019-06-07T04:09:42.029Z,99604.00
2019-06-07T04:12:09.597Z,99598.08
2019-06-07T04:14:42.501Z,99597.00
2019-06-07T04:17:10.312Z,99602.08
2019-06-07T04:19:43.330Z,99601.66
2019-06-07T04:22:10.461Z,99608.03
2019-06-07T04:24:41.958Z,99606.35
2019-06-07T04:27:10.650Z,99606.73
2019-06-07T04:30:04.834Z,99600.33
2019-06-07T04:32:11.051Z,99600.33
2019-06-07T04:34:43.241Z,99597.90
2019-06-07T04:37:11.215Z,99599.16
2019-06-07T04:39:44.684Z,99602.11
2019-06-07T04:42:11.989Z,99602.93
2019-06-07T04:44:43.138Z,99601.27
2019-06-07T04:47:12.345Z,99612.11
2019-06-07T04:49:44.092Z,99610.91
2019-06-07T04:52:14.470Z,99614.13
2019-06-07T04:54:45.970Z,99621.27
2019-06-07T04:57:15.432Z,99619.86
2019-06-07T05:00:12.109Z,99610.91
2019-06-07T05:02:18.504Z,99614.27
2019-06-07T05:04:47.681Z,99618.00
2019-06-07T05:07:17.091Z,99614.00
2019-06-07T05:09:46.572Z,99609.22
2019-06-07T05:12:15.972Z,99609.22
2019-06-07T05:14:45.241Z,99607.38
2019-06-07T05:17:14.781Z,99607.05
2019-06-07T05:19:44.829Z,99604.93
2019-06-07T05:22:14.146Z,99607.39
2019-06-07T05:24:43.929Z,99610.52
2019-06-07T05:27:13.517Z,99610.37
2019-06-07T05:29:44.372Z,99607.06
2019-06-07T05:32:14.339Z,99609.45
2019-06-07T05:34:47.239Z,99611.69
2019-06-07T05:37:14.948Z,99621.64
2019-06-07T05:39:46.379Z,99608.56
2019-06-07T05:42:15.125Z,99620.20
2019-06-07T05:44:45.850Z,99616.22
2019-06-07T05:47:15.335Z,99625.16
2019-06-07T05:49:46.961Z,99620.66
2019-06-07T05:52:15.634Z,99611.44
2019-06-07T05:54:46.824Z,99607.82
2019-06-07T05:57:15.709Z,99609.67
2019-06-07T05:59:47.550Z,99611.18
2019-06-07T06:02:22.684Z,99613.66
2019-06-07T06:04:49.217Z,99611.37
2019-06-07T06:07:17.878Z,99617.22
2019-06-07T06:09:47.650Z,99614.88
2019-06-07T06:12:33.950Z,99620.14
2019-06-07T06:14:48.045Z,99612.36
2019-06-07T06:17:17.237Z,99609.69
2019-06-07T06:19:50.425Z,99610.93
2019-06-07T06:22:17.437Z,99612.31
2019-06-07T06:25:17.827Z,99609.41
2019-06-07T06:28:01.808Z,99604.19
2019-06-07T06:29:50.305Z,99607.70
2019-06-07T06:34:53.642Z,99613.84
2019-06-07T06:37:20.955Z,99610.51
2019-06-07T06:39:50.365Z,99618.49
2019-06-07T06:42:19.484Z,99603.53
2019-06-07T06:44:53.572Z,99606.45
2019-06-07T06:47:19.715Z,99609.52
2019-06-07T06:49:50.141Z,99609.12
2019-06-07T06:52:19.916Z,99610.69
2019-06-07T06:54:59.420Z,99613.05
2019-06-07T06:57:20.529Z,99613.20
2019-06-07T06:59:52.545Z,99620.63
2019-06-07T07:02:20.794Z,99620.45
2019-06-07T07:04:53.506Z,99613.43
2019-06-07T07:07:20.924Z,99618.83
2019-06-07T07:09:54.754Z,99617.27
2019-06-07T07:12:21.073Z,99619.25
2019-06-07T07:14:52.956Z,99617.90
2019-06-07T07:17:46.290Z,99619.31
2019-06-07T07:19:54.933Z,99618.38
2019-06-07T07:22:23.084Z,99616.88
2019-06-07T07:24:54.794Z,99611.84
2019-06-07T07:27:23.222Z,99605.23
2019-06-07T07:30:10.239Z,99611.69
2019-06-07T07:32:23.508Z,99605.59
2019-06-07T07:35:00.004Z,99600.42
2019-06-07T07:37:23.888Z,99605.70
2019-06-07T07:40:01.147Z,99609.53
2019-06-07T07:42:24.095Z,99607.72
2019-06-07T07:44:55.131Z,99613.75
2019-06-07T07:47:24.318Z,99616.00
2019-06-07T07:49:58.508Z,99616.88
2019-06-07T07:52:24.442Z,99619.74
2019-06-07T07:54:56.617Z,99616.61
2019-06-07T07:57:24.714Z,99623.56
2019-06-07T08:00:12.088Z,99625.92
2019-06-07T08:02:25.124Z,99621.17
2019-06-07T08:05:20.550Z,99614.98
2019-06-07T08:07:25.618Z,99620.70
2019-06-07T08:09:57.738Z,99622.53
2019-06-07T08:12:26.109Z,99624.66
2019-06-07T08:14:58.488Z,99632.16
2019-06-07T08:17:26.566Z,99620.92
2019-06-07T08:19:57.519Z,99627.91
2019-06-07T08:22:26.862Z,99624.55
2019-06-07T08:24:59.833Z,99635.05
2019-06-07T08:27:27.309Z,99632.95
2019-06-07T08:30:16.067Z,99635.66
2019-06-07T08:32:27.731Z,99638.16
2019-06-07T08:35:05.620Z,99638.62
2019-06-07T08:38:13.291Z,99647.12
2019-06-07T08:40:01.458Z,99652.67
2019-06-07T08:42:36.877Z,99642.63
2019-06-07T08:45:03.611Z,99652.86
2019-06-07T08:47:32.068Z,99642.86
2019-06-07T08:50:07.236Z,99642.14
2019-06-07T08:52:32.541Z,99652.59
2019-06-07T08:55:04.983Z,99644.05
2019-06-07T08:57:32.866Z,99643.98
2019-06-07T09:00:15.733Z,99644.97
2019-06-07T09:02:32.708Z,99647.97
2019-06-07T09:05:06.962Z,99658.53
2019-06-07T09:07:33.373Z,99656.56
2019-06-07T09:10:09.508Z,99645.13
2019-06-07T09:12:33.218Z,99647.89
2019-06-07T09:15:14.829Z,99643.92
2019-06-07T09:17:34.243Z,99648.94
2019-06-07T09:20:21.546Z,99656.66
2019-06-07T09:22:37.021Z,99662.89
2019-06-07T09:25:19.616Z,99647.66
2019-06-07T09:27:38.394Z,99653.25
2019-06-07T09:30:16.308Z,99652.05
2019-06-07T09:32:40.613Z,99661.33
2019-06-07T09:35:16.871Z,99658.57
2019-06-07T09:38:07.294Z,99652.59
2019-06-07T09:40:24.137Z,99654.38
2019-06-07T09:42:42.999Z,99659.42
2019-06-07T09:45:14.120Z,99676.17
2019-06-07T09:47:43.150Z,99660.92
2019-06-07T09:50:12.730Z,99665.72
2019-06-07T09:52:58.049Z,99663.28
2019-06-07T09:55:23.747Z,99660.02
2019-06-07T09:57:44.065Z,99659.29
2019-06-07T10:00:39.980Z,99656.04
2019-06-07T10:02:47.247Z,99655.06
2019-06-07T10:05:16.522Z,99660.23
2019-06-07T10:08:00.008Z,99660.77
2019-06-07T10:12:47.868Z,99650.91
2019-06-07T10:15:17.243Z,99655.31
2019-06-07T10:17:46.614Z,99647.66
2019-06-07T10:20:15.845Z,99656.66
2019-06-07T10:22:45.138Z,99650.34
2019-06-07T10:25:14.572Z,99659.27
2019-06-07T10:27:44.051Z,99654.16
2019-06-07T10:30:13.340Z,99655.25
2019-06-07T10:32:42.778Z,99662.48
2019-06-07T10:35:15.446Z,99648.37
2019-06-07T10:37:42.958Z,99652.41
2019-06-07T10:40:12.231Z,99650.11
2019-06-07T10:42:41.549Z,99640.41
2019-06-07T10:45:12.318Z,99635.70
2019-06-07T10:47:41.768Z,99640.08
2019-06-07T10:50:30.507Z,99648.84
2019-06-07T10:52:59.784Z,99642.45
2019-06-07T10:55:28.988Z,99641.84
2019-06-07T10:57:58.372Z,99644.30
2019-06-07T11:00:27.850Z,99638.11
2019-06-07T11:02:57.176Z,99636.00
2019-06-07T11:05:26.564Z,99637.41
2019-06-07T11:07:55.837Z,99631.14
2019-06-07T11:10:25.230Z,99630.03
2019-06-07T11:12:54.565Z,99626.92
2019-06-07T11:15:23.804Z,99620.20
2019-06-07T11:17:53.207Z,99623.94
2019-06-07T11:20:22.488Z,99623.84
2019-06-07T11:22:51.892Z,99617.43
2019-06-07T11:25:21.233Z,99615.53
2019-06-07T11:27:50.506Z,99617.33
2019-06-07T11:30:19.964Z,99622.13
2019-06-07T11:32:49.195Z,99619.34
2019-06-07T11:35:19.148Z,99619.16
2019-06-07T11:37:48.656Z,99618.01
2019-06-07T11:40:34.006Z,99607.17
2019-06-07T11:42:52.779Z,99607.86
2019-06-07T11:45:21.174Z,99605.53
2019-06-07T11:47:50.674Z,99592.48
2019-06-07T11:50:19.926Z,99593.59
2019-06-07T11:52:49.180Z,99592.29
2019-06-07T11:55:19.103Z,99580.47
2019-06-07T11:57:50.222Z,99594.21
2019-06-07T12:00:20.745Z,99591.77
2019-06-07T12:02:50.019Z,99592.27
2019-06-07T12:05:20.382Z,99591.01
2019-06-07T12:07:49.761Z,99583.87
2019-06-07T12:10:22.864Z,99594.63
2019-06-07T12:12:50.582Z,99593.52
2019-06-07T12:15:19.829Z,99591.70
2019-06-07T12:17:49.130Z,99585.09
2019-06-07T12:20:20.798Z,99584.30
2019-06-07T12:22:49.438Z,99578.29
2019-06-07T12:25:24.293Z,99577.61
2019-06-07T12:27:49.857Z,99579.63
2019-06-07T12:30:26.014Z,99570.88
2019-06-07T12:32:50.431Z,99579.64
2019-06-07T12:35:20.011Z,99572.67
2019-06-07T12:37:49.316Z,99565.82
2019-06-07T12:40:27.766Z,99569.59
2019-06-07T12:42:49.540Z,99568.08
2019-06-07T12:45:40.179Z,99559.66
2019-06-07T12:47:49.907Z,99550.63
2019-06-07T12:50:19.727Z,99554.51
2019-06-07T12:52:48.923Z,99553.36
2019-06-07T12:55:20.289Z,99552.47
2019-06-07T12:57:49.405Z,99551.17
2019-06-07T13:00:20.135Z,99553.92
2019-06-07T13:02:49.817Z,99551.95
2019-06-07T13:05:19.954Z,99550.29
2019-06-07T13:07:49.466Z,99545.17
2019-06-07T13:10:20.037Z,99539.92
2019-06-07T13:12:49.523Z,99540.62
2019-06-07T13:15:21.856Z,99551.13
2019-06-07T13:17:50.012Z,99544.94
2019-06-07T13:20:20.405Z,99541.48
2019-06-07T13:22:49.989Z,99541.98
2019-06-07T13:25:21.242Z,99534.13
2019-06-07T13:27:50.321Z,99539.31
2019-06-07T13:30:21.037Z,99536.87
2019-06-07T13:32:50.401Z,99546.83
2019-06-07T13:35:21.926Z,99548.91
2019-06-07T13:37:50.831Z,99549.84
2019-06-07T13:40:21.255Z,99561.33
2019-06-07T13:42:51.137Z,99548.93
2019-06-07T13:45:22.153Z,99545.39
2019-06-07T13:47:51.885Z,99540.14
2019-06-07T13:50:21.716Z,99538.83
2019-06-07T13:52:51.154Z,99547.33
2019-06-07T13:55:21.846Z,99549.64
2019-06-07T13:57:51.120Z,99549.77
2019-06-07T14:00:22.707Z,99550.51
2019-06-07T14:02:51.597Z,99549.94
2019-06-07T14:05:23.041Z,99549.89
2019-06-07T14:07:52.392Z,99548.77
2019-06-07T14:10:21.776Z,99538.55
2019-06-07T14:12:51.089Z,99544.90
2019-06-07T14:15:20.952Z,99536.11
2019-06-07T14:17:51.994Z,99540.50
2019-06-07T14:23:14.673Z,99542.51
2019-06-07T14:25:43.915Z,99547.87
2019-06-07T14:28:13.089Z,99541.10
2019-06-07T14:30:42.537Z,99546.69
2019-06-07T14:33:11.709Z,99535.58
2019-06-07T14:35:41.016Z,99538.61
2019-06-07T14:38:10.193Z,99539.12
2019-06-07T14:40:39.388Z,99532.19
2019-06-07T14:43:08.690Z,99526.83
2019-06-07T14:45:37.874Z,99533.70
2019-06-07T14:48:08.718Z,99530.28
2019-06-07T14:50:37.929Z,99534.16
2019-06-07T14:53:07.175Z,99529.78
2019-06-07T14:55:36.414Z,99537.23
2019-06-07T14:58:05.636Z,99537.70
2019-06-07T15:00:40.125Z,99536.65
2019-06-07T15:03:09.411Z,99534.88
2019-06-07T15:05:40.477Z,99533.81
2019-06-07T15:08:09.613Z,99536.63
2019-06-07T15:10:39.463Z,99545.84
2019-06-07T15:13:08.798Z,99542.91
2019-06-07T15:15:39.755Z,99544.28
2019-06-07T15:18:10.581Z,99542.06
2019-06-07T15:20:39.866Z,99544.05
2019-06-07T15:23:10.798Z,99547.61
2019-06-07T15:25:40.252Z,99550.10
2019-06-07T15:28:10.066Z,99549.44
2019-06-07T15:30:40.106Z,99544.83
2019-06-07T15:33:09.583Z,99554.96
2019-06-07T15:35:39.206Z,99553.83
2019-06-07T15:38:08.582Z,99555.11
2019-06-07T15:40:39.465Z,99553.70
2019-06-07T15:43:10.623Z,99550.69
2019-06-07T15:45:40.002Z,99551.61
2019-06-07T15:48:11.003Z,99548.77
2019-06-07T15:50:40.585Z,99561.14
2019-06-07T15:53:09.935Z,99549.67
2019-06-07T15:55:45.085Z,99548.25
2019-06-07T15:58:12.375Z,99542.94
2019-06-07T16:00:42.604Z,99545.16
2019-06-07T16:03:12.118Z,99556.95
2019-06-07T16:05:41.568Z,99558.95
2019-06-07T16:08:10.921Z,99566.52
2019-06-07T16:10:40.962Z,99562.81
2019-06-07T16:13:10.434Z,99561.72
2019-06-07T16:15:41.370Z,99559.22
2019-06-07T16:18:11.166Z,99554.47
2019-06-07T16:20:41.509Z,99561.11
2019-06-07T16:23:10.773Z,99567.70
2019-06-07T16:25:40.213Z,99563.97
2019-06-07T16:28:09.414Z,99564.27
2019-06-07T16:30:38.662Z,99571.12
2019-06-07T16:33:07.942Z,99579.19
2019-06-07T16:35:37.119Z,99573.39
2019-06-07T16:38:06.342Z,99573.98
2019-06-07T16:40:36.399Z,99581.70
2019-06-07T16:43:16.893Z,99579.02
2019-06-07T16:45:36.613Z,99582.77
2019-06-07T16:48:05.863Z,99588.30
2019-06-07T16:50:36.684Z,99590.88
2019-06-07T16:53:06.087Z,99591.70
2019-06-07T16:55:36.489Z,99586.72
2019-06-07T16:58:05.695Z,99587.68
2019-06-07T17:00:35.376Z,99581.37
2019-06-07T17:03:05.285Z,99587.02
2019-06-07T17:05:34.512Z,99584.67
2019-06-07T17:08:03.758Z,99583.23
2019-06-07T17:10:32.931Z,99578.50
2019-06-07T17:13:02.499Z,99584.98
2019-06-07T17:15:32.068Z,99585.80
2019-06-07T17:18:02.182Z,99589.77
2019-06-07T17:20:31.521Z,99584.42
2019-06-07T17:23:01.201Z,99588.41
2019-06-07T17:25:31.716Z,99586.20
2019-06-07T17:28:01.921Z,99586.69
2019-06-07T17:30:31.657Z,99589.87
2019-06-07T17:33:00.984Z,99592.59
2019-06-07T17:35:30.273Z,99595.31
2019-06-07T17:37:59.542Z,99594.91
2019-06-07T17:40:28.838Z,99598.23
2019-06-07T17:42:58.032Z,99596.89
2019-06-07T17:45:27.297Z,99600.86
2019-06-07T17:47:56.711Z,99601.80
2019-06-07T17:50:26.061Z,99606.84
2019-06-07T17:52:55.448Z,99603.42
2019-06-07T17:55:24.908Z,99597.11
2019-06-07T17:57:54.321Z,99611.28
2019-06-07T18:00:28.510Z,99608.80
2019-06-07T18:02:55.040Z,99604.30
2019-06-07T18:05:24.353Z,99604.23
2019-06-07T18:07:53.977Z,99609.55
2019-06-07T18:10:38.093Z,99605.95
2019-06-07T18:13:07.428Z,99600.95
2019-06-07T18:15:46.324Z,99606.02
2019-06-07T18:18:15.817Z,99613.76
2019-06-07T18:20:45.175Z,99617.12
2019-06-07T18:23:14.554Z,99620.00
2019-06-07T18:25:43.881Z,99616.66
2019-06-07T18:28:13.771Z,99614.11
2019-06-07T18:30:43.073Z,99621.14
2019-06-07T18:33:12.333Z,99627.86
2019-06-07T18:35:41.859Z,99623.38
2019-06-07T18:38:11.282Z,99634.34
2019-06-07T18:40:41.942Z,99641.30
2019-06-07T18:43:11.552Z,99634.08
2019-06-07T18:45:42.724Z,99640.45
2019-06-07T18:48:11.981Z,99643.00
2019-06-07T18:50:41.307Z,99646.92
2019-06-07T18:53:10.646Z,99643.90
2019-06-07T18:55:42.021Z,99651.11
2019-06-07T18:58:11.354Z,99647.47
2019-06-07T19:00:40.860Z,99647.72
2019-06-07T19:03:10.129Z,99652.81
2019-06-07T19:05:39.338Z,99658.17
2019-06-07T19:08:08.716Z,99655.90
2019-06-07T19:10:38.063Z,99664.60
2019-06-07T19:13:07.451Z,99662.39
2019-06-07T19:15:36.888Z,99666.30
2019-06-07T19:18:06.366Z,99669.91
2019-06-07T19:20:35.854Z,99662.91
2019-06-07T19:23:05.442Z,99666.83
2019-06-07T19:25:35.035Z,99669.64
2019-06-07T19:28:04.582Z,99670.74
2019-06-07T19:30:34.435Z,99666.55
2019-06-07T19:33:03.883Z,99662.88
2019-06-07T19:35:33.515Z,99665.32
2019-06-07T19:38:02.755Z,99665.92
2019-06-07T19:40:32.198Z,99662.02
2019-06-07T19:43:03.916Z,99668.67
2019-06-07T19:45:32.296Z,99671.18
2019-06-07T19:48:02.687Z,99669.91
2019-06-07T19:50:32.094Z,99663.59
2019-06-07T19:53:01.415Z,99658.55
2019-06-07T19:55:30.629Z,99657.69
2019-06-07T19:57:59.884Z,99665.13
2019-06-07T20:00:29.170Z,99668.05
2019-06-07T20:02:58.399Z,99672.58
2019-06-07T20:05:27.718Z,99678.30
2019-06-07T20:07:58.414Z,99677.55
2019-06-07T20:10:27.912Z,99667.30
2019-06-07T20:12:58.563Z,99671.17
2019-06-07T20:15:29.555Z,99671.87
2019-06-07T20:17:59.323Z,99668.58
2019-06-07T20:20:30.099Z,99665.31
2019-06-07T20:23:00.830Z,99660.28
2019-06-07T20:25:30.251Z,99665.90
2019-06-07T20:27:59.737Z,99657.80
2019-06-07T20:30:29.848Z,99658.86
2019-06-07T20:32:59.817Z,99660.78
2019-06-07T20:35:29.322Z,99668.86
2019-06-07T20:37:58.920Z,99667.16
2019-06-07T20:40:28.264Z,99660.73
2019-06-07T20:42:57.848Z,99665.72
2019-06-07T20:45:33.645Z,99677.59
2019-06-07T20:47:58.251Z,99670.73
2019-06-07T20:50:27.656Z,99674.61
2019-06-07T20:52:59.377Z,99673.73
2019-06-07T20:55:27.837Z,99683.50
2019-06-07T20:57:57.049Z,99687.69
2019-06-07T21:00:26.291Z,99680.80
2019-06-07T21:02:55.514Z,99685.94
2019-06-07T21:05:24.819Z,99689.54
2019-06-07T21:07:53.994Z,99691.72
2019-06-07T21:10:23.650Z,99693.12
2019-06-07T21:12:52.882Z,99683.92
2019-06-07T21:15:22.155Z,99687.73
2019-06-07T21:17:51.560Z,99685.45
2019-06-07T21:20:20.743Z,99680.84
2019-06-07T21:22:49.943Z,99681.09
2019-06-07T21:25:19.137Z,99686.69
2019-06-07T21:27:48.389Z,99688.19
2019-06-07T21:30:17.696Z,99686.03
2019-06-07T21:32:46.950Z,99685.20
2019-06-07T21:35:16.858Z,99682.79
2019-06-07T21:37:46.077Z,99689.55
2019-06-07T21:40:15.450Z,99690.67
2019-06-07T21:42:44.633Z,99690.39
2019-06-07T21:45:15.358Z,99696.47
2019-06-07T21:47:44.662Z,99696.08
2019-06-07T21:50:17.428Z,99695.22
2019-06-07T21:52:46.841Z,99700.71
2019-06-07T21:55:16.149Z,99690.34
2019-06-07T21:57:47.137Z,99694.97
2019-06-07T22:00:18.799Z,99691.78
2019-06-07T22:02:48.182Z,99692.62
2019-06-07T22:05:17.436Z,99686.05
2019-06-07T22:07:46.748Z,99692.27
2019-06-07T22:10:16.196Z,99691.80
2019-06-07T22:12:45.545Z,99687.34
2019-06-07T22:15:32.115Z,99691.45
2019-06-07T22:17:47.466Z,99693.59
2019-06-07T22:20:16.857Z,99695.01
2019-06-07T22:22:46.180Z,99691.27
2019-06-07T22:25:15.572Z,99687.83
2019-06-07T22:27:45.004Z,99690.83
2019-06-07T22:30:14.557Z,99677.67
2019-06-07T22:32:44.047Z,99682.40
2019-06-07T22:35:13.442Z,99682.19
2019-06-07T22:37:42.620Z,99680.77
2019-06-07T22:40:12.535Z,99675.80
2019-06-07T22:42:42.005Z,99681.69
2019-06-07T22:45:11.282Z,99681.92
2019-06-07T22:47:40.687Z,99683.30
2019-06-07T22:50:10.872Z,99675.14
2019-06-07T22:52:40.481Z,99673.97
2019-06-07T22:55:10.322Z,99669.98
2019-06-07T22:57:57.634Z,99670.17
2019-06-07T23:00:28.515Z,99676.08
2019-06-07T23:02:57.797Z,99667.42
2019-06-07T23:05:27.218Z,99665.39
2019-06-07T23:07:56.601Z,99660.27
2019-06-07T23:10:25.925Z,99663.42
2019-06-07T23:12:55.218Z,99668.00
2019-06-07T23:15:24.630Z,99659.08
2019-06-07T23:17:53.824Z,99664.09
2019-06-07T23:20:23.143Z,99665.00
2019-06-07T23:22:54.560Z,99666.24
2019-06-07T23:25:24.880Z,99666.69
2019-06-07T23:27:54.216Z,99665.58
2019-06-07T23:30:23.396Z,99656.69
2019-06-07T23:32:52.686Z,99664.60
2019-06-07T23:35:22.136Z,99661.04
2019-06-07T23:37:52.737Z,99658.06
2019-06-07T23:40:22.038Z,99650.67
2019-06-07T23:42:51.369Z,99656.03
2019-06-07T23:45:21.714Z,99660.52
2019-06-07T23:47:51.093Z,99665.80
2019-06-07T23:50:20.265Z,99665.83
2019-06-07T23:52:49.990Z,99671.92
2019-06-07T23:55:20.092Z,99672.11
2019-06-07T23:57:49.667Z,99666.82
